sensor_id;sensor_type;location;lat;lon;timestamp;P1;durP1;ratioP1;P2;durP2;ratioP2
2023;SDS011;1016;48.770;9.154;2022-10-16T00:00:27;15.70;;;1.90;;
2023;SDS011;1016;48.770;9.154;2022-10-16T00:02:53;16.20;;;2.00;;
2023;SDS011;1016;48.770;9.154;2022-10-16T00:05:18;15.50;;;1.90;;
2023;SDS011;1016;48.770;9.154;2022-10-16T00:07:44;15.50;;;2.07;;
2023;SDS011;1016;48.770;9.154;2022-10-16T00:10:09;15.50;;;2.00;;
2023;SDS011;1016;48.770;9.154;2022-10-16T00:12:35;16.47;;;1.90;;
2023;SDS011;1016;48.770;9.154;2022-10-16T00:15:00;16.33;;;2.00;;
2023;SDS011;1016;48.770;9.154;2022-10-16T00:17:26;16.60;;;2.30;;
2023;SDS011;1016;48.770;9.154;2022-10-16T00:19:51;15.93;;;1.90;;
2023;SDS011;1016;48.770;9.154;2022-10-16T00:22:17;15.73;;;1.67;;
2023;SDS011;1016;48.770;9.154;2022-10-16T00:24:42;15.00;;;1.77;;
2023;SDS011;1016;48.770;9.154;2022-10-16T00:27:08;16.23;;;1.77;;
2023;SDS011;1016;48.770;9.154;2022-10-16T00:29:33;15.33;;;1.87;;
2023;SDS011;1016;48.770;9.154;2022-10-16T00:31:59;16.80;;;2.17;;
2023;SDS011;1016;48.770;9.154;2022-10-16T00:34:24;15.77;;;2.20;;
2023;SDS011;1016;48.770;9.154;2022-10-16T00:36:50;16.23;;;2.13;;
2023;SDS011;1016;48.770;9.154;2022-10-16T00:39:15;16.00;;;1.60;;
2023;SDS011;1016;48.770;9.154;2022-10-16T00:41:41;16.20;;;2.17;;
2023;SDS011;1016;48.770;9.154;2022-10-16T00:47:10;15.53;;;1.90;;
2023;SDS011;1016;48.770;9.154;2022-10-16T00:49:39;17.97;;;1.80;;
2023;SDS011;1016;48.770;9.154;2022-10-16T00:52:04;15.97;;;1.80;;
2023;SDS011;1016;48.770;9.154;2022-10-16T00:54:31;16.23;;;2.03;;
2023;SDS011;1016;48.770;9.154;2022-10-16T00:56:58;17.30;;;1.80;;
2023;SDS011;1016;48.770;9.154;2022-10-16T00:59:28;19.07;;;2.23;;
2023;SDS011;1016;48.770;9.154;2022-10-16T01:01:56;17.43;;;1.80;;
2023;SDS011;1016;48.770;9.154;2022-10-16T01:04:23;16.70;;;1.80;;
2023;SDS011;1016;48.770;9.154;2022-10-16T01:15:31;15.90;;;1.60;;
2023;SDS011;1016;48.770;9.154;2022-10-16T01:18:08;14.50;;;1.60;;
2023;SDS011;1016;48.770;9.154;2022-10-16T01:23:43;17.47;;;1.80;;
2023;SDS011;1016;48.770;9.154;2022-10-16T01:26:18;15.30;;;1.90;;
2023;SDS011;1016;48.770;9.154;2022-10-16T01:28:52;17.60;;;1.70;;
2023;SDS011;1016;48.770;9.154;2022-10-16T01:31:24;17.63;;;1.43;;
2023;SDS011;1016;48.770;9.154;2022-10-16T01:33:57;15.77;;;1.60;;
2023;SDS011;1016;48.770;9.154;2022-10-16T01:36:45;18.30;;;1.63;;
2023;SDS011;1016;48.770;9.154;2022-10-16T01:39:27;15.47;;;1.83;;
2023;SDS011;1016;48.770;9.154;2022-10-16T01:42:30;16.50;;;2.00;;
2023;SDS011;1016;48.770;9.154;2022-10-16T01:44:55;15.50;;;1.63;;
2023;SDS011;1016;48.770;9.154;2022-10-16T01:47:23;16.03;;;1.63;;
2023;SDS011;1016;48.770;9.154;2022-10-16T01:49:51;16.30;;;1.70;;
2023;SDS011;1016;48.770;9.154;2022-10-16T01:52:21;15.40;;;1.70;;
2023;SDS011;1016;48.770;9.154;2022-10-16T01:54:51;15.83;;;1.70;;
2023;SDS011;1016;48.770;9.154;2022-10-16T01:57:19;16.40;;;1.50;;
2023;SDS011;1016;48.770;9.154;2022-10-16T01:59:47;15.70;;;1.67;;
2023;SDS011;1016;48.770;9.154;2022-10-16T02:02:17;15.03;;;1.70;;
2023;SDS011;1016;48.770;9.154;2022-10-16T02:04:46;14.80;;;1.57;;
2023;SDS011;1016;48.770;9.154;2022-10-16T02:07:16;16.73;;;2.10;;
2023;SDS011;1016;48.770;9.154;2022-10-16T02:09:42;15.70;;;1.90;;
2023;SDS011;1016;48.770;9.154;2022-10-16T02:12:09;17.70;;;2.00;;
2023;SDS011;1016;48.770;9.154;2022-10-16T02:14:40;16.47;;;1.80;;
2023;SDS011;1016;48.770;9.154;2022-10-16T02:17:10;17.43;;;1.97;;
2023;SDS011;1016;48.770;9.154;2022-10-16T02:19:37;15.60;;;1.80;;
2023;SDS011;1016;48.770;9.154;2022-10-16T02:22:03;15.27;;;1.87;;
2023;SDS011;1016;48.770;9.154;2022-10-16T02:24:38;15.37;;;1.60;;
2023;SDS011;1016;48.770;9.154;2022-10-16T02:27:13;16.80;;;1.80;;
2023;SDS011;1016;48.770;9.154;2022-10-16T02:29:52;15.43;;;1.70;;
2023;SDS011;1016;48.770;9.154;2022-10-16T02:32:23;16.87;;;1.90;;
2023;SDS011;1016;48.770;9.154;2022-10-16T02:34:52;17.13;;;1.50;;
2023;SDS011;1016;48.770;9.154;2022-10-16T02:37:18;15.30;;;1.70;;
2023;SDS011;1016;48.770;9.154;2022-10-16T02:39:44;15.13;;;1.50;;
2023;SDS011;1016;48.770;9.154;2022-10-16T02:42:11;17.60;;;1.57;;
2023;SDS011;1016;48.770;9.154;2022-10-16T02:44:37;15.50;;;1.80;;
2023;SDS011;1016;48.770;9.154;2022-10-16T02:47:03;16.87;;;2.00;;
2023;SDS011;1016;48.770;9.154;2022-10-16T02:49:29;14.97;;;1.53;;
2023;SDS011;1016;48.770;9.154;2022-10-16T02:51:54;14.83;;;1.70;;
2023;SDS011;1016;48.770;9.154;2022-10-16T02:54:20;17.63;;;1.60;;
2023;SDS011;1016;48.770;9.154;2022-10-16T02:56:45;16.20;;;1.77;;
2023;SDS011;1016;48.770;9.154;2022-10-16T02:59:11;18.70;;;1.80;;
2023;SDS011;1016;48.770;9.154;2022-10-16T03:01:36;18.17;;;1.67;;
2023;SDS011;1016;48.770;9.154;2022-10-16T03:04:02;15.67;;;1.90;;
2023;SDS011;1016;48.770;9.154;2022-10-16T03:06:27;16.47;;;1.83;;
2023;SDS011;1016;48.770;9.154;2022-10-16T03:08:53;19.60;;;1.60;;
2023;SDS011;1016;48.770;9.154;2022-10-16T03:11:18;16.50;;;1.57;;
2023;SDS011;1016;48.770;9.154;2022-10-16T03:13:44;16.20;;;1.93;;
2023;SDS011;1016;48.770;9.154;2022-10-16T03:16:09;15.30;;;1.70;;
2023;SDS011;1016;48.770;9.154;2022-10-16T03:18:35;15.70;;;1.53;;
2023;SDS011;1016;48.770;9.154;2022-10-16T03:21:00;15.50;;;1.60;;
2023;SDS011;1016;48.770;9.154;2022-10-16T03:23:26;16.20;;;2.43;;
2023;SDS011;1016;48.770;9.154;2022-10-16T03:25:51;16.27;;;1.67;;
2023;SDS011;1016;48.770;9.154;2022-10-16T03:28:17;15.20;;;1.33;;
2023;SDS011;1016;48.770;9.154;2022-10-16T03:30:43;15.93;;;1.50;;
2023;SDS011;1016;48.770;9.154;2022-10-16T03:33:08;15.80;;;1.60;;
2023;SDS011;1016;48.770;9.154;2022-10-16T03:35:34;16.07;;;1.80;;
2023;SDS011;1016;48.770;9.154;2022-10-16T03:37:59;16.80;;;1.50;;
2023;SDS011;1016;48.770;9.154;2022-10-16T03:40:25;18.50;;;1.97;;
2023;SDS011;1016;48.770;9.154;2022-10-16T03:42:51;17.93;;;2.07;;
2023;SDS011;1016;48.770;9.154;2022-10-16T03:45:19;17.03;;;1.73;;
2023;SDS011;1016;48.770;9.154;2022-10-16T03:47:44;14.97;;;1.40;;
2023;SDS011;1016;48.770;9.154;2022-10-16T03:50:10;15.13;;;1.70;;
2023;SDS011;1016;48.770;9.154;2022-10-16T03:52:35;16.33;;;1.73;;
2023;SDS011;1016;48.770;9.154;2022-10-16T03:55:01;14.83;;;1.57;;
2023;SDS011;1016;48.770;9.154;2022-10-16T03:57:26;15.50;;;1.70;;
2023;SDS011;1016;48.770;9.154;2022-10-16T03:59:52;19.20;;;1.97;;
2023;SDS011;1016;48.770;9.154;2022-10-16T04:02:17;15.50;;;1.70;;
2023;SDS011;1016;48.770;9.154;2022-10-16T04:04:43;16.37;;;1.57;;
2023;SDS011;1016;48.770;9.154;2022-10-16T04:07:08;16.27;;;1.63;;
2023;SDS011;1016;48.770;9.154;2022-10-16T04:09:34;15.40;;;1.60;;
2023;SDS011;1016;48.770;9.154;2022-10-16T04:11:59;15.43;;;1.50;;
2023;SDS011;1016;48.770;9.154;2022-10-16T04:14:25;18.50;;;2.00;;
2023;SDS011;1016;48.770;9.154;2022-10-16T04:16:50;20.70;;;3.50;;
2023;SDS011;1016;48.770;9.154;2022-10-16T04:19:16;15.50;;;1.50;;
2023;SDS011;1016;48.770;9.154;2022-10-16T04:21:41;16.37;;;1.93;;
2023;SDS011;1016;48.770;9.154;2022-10-16T04:24:07;14.50;;;1.40;;
2023;SDS011;1016;48.770;9.154;2022-10-16T04:26:32;14.97;;;1.60;;
2023;SDS011;1016;48.770;9.154;2022-10-16T04:28:58;15.67;;;1.50;;
2023;SDS011;1016;48.770;9.154;2022-10-16T04:31:23;20.90;;;1.80;;
2023;SDS011;1016;48.770;9.154;2022-10-16T04:33:49;15.10;;;1.53;;
2023;SDS011;1016;48.770;9.154;2022-10-16T04:36:14;17.00;;;1.80;;
2023;SDS011;1016;48.770;9.154;2022-10-16T04:38:40;16.40;;;1.97;;
2023;SDS011;1016;48.770;9.154;2022-10-16T04:41:06;17.20;;;1.57;;
2023;SDS011;1016;48.770;9.154;2022-10-16T04:43:33;16.00;;;1.77;;
2023;SDS011;1016;48.770;9.154;2022-10-16T04:45:59;16.73;;;1.70;;
2023;SDS011;1016;48.770;9.154;2022-10-16T04:48:24;19.10;;;1.83;;
2023;SDS011;1016;48.770;9.154;2022-10-16T04:50:50;16.23;;;1.70;;
2023;SDS011;1016;48.770;9.154;2022-10-16T04:53:16;16.20;;;2.40;;
2023;SDS011;1016;48.770;9.154;2022-10-16T04:55:41;15.00;;;1.53;;
2023;SDS011;1016;48.770;9.154;2022-10-16T04:58:07;17.60;;;1.80;;
2023;SDS011;1016;48.770;9.154;2022-10-16T05:00:33;16.07;;;1.80;;
2023;SDS011;1016;48.770;9.154;2022-10-16T05:02:59;16.73;;;1.90;;
2023;SDS011;1016;48.770;9.154;2022-10-16T05:05:26;15.50;;;1.60;;
2023;SDS011;1016;48.770;9.154;2022-10-16T05:07:53;16.70;;;2.00;;
2023;SDS011;1016;48.770;9.154;2022-10-16T05:10:19;17.47;;;1.50;;
2023;SDS011;1016;48.770;9.154;2022-10-16T05:12:44;15.20;;;1.60;;
2023;SDS011;1016;48.770;9.154;2022-10-16T05:15:10;15.10;;;1.60;;
2023;SDS011;1016;48.770;9.154;2022-10-16T05:17:36;16.90;;;1.60;;
2023;SDS011;1016;48.770;9.154;2022-10-16T05:20:02;15.80;;;1.67;;
2023;SDS011;1016;48.770;9.154;2022-10-16T05:22:28;16.10;;;1.70;;
2023;SDS011;1016;48.770;9.154;2022-10-16T05:24:53;20.13;;;1.63;;
2023;SDS011;1016;48.770;9.154;2022-10-16T05:27:19;19.40;;;1.70;;
2023;SDS011;1016;48.770;9.154;2022-10-16T05:29:45;20.13;;;1.70;;
2023;SDS011;1016;48.770;9.154;2022-10-16T05:32:12;15.90;;;1.33;;
2023;SDS011;1016;48.770;9.154;2022-10-16T05:34:38;14.87;;;1.50;;
2023;SDS011;1016;48.770;9.154;2022-10-16T05:37:03;16.87;;;1.67;;
2023;SDS011;1016;48.770;9.154;2022-10-16T05:39:29;17.90;;;1.73;;
2023;SDS011;1016;48.770;9.154;2022-10-16T05:41:55;17.00;;;1.70;;
2023;SDS011;1016;48.770;9.154;2022-10-16T05:44:20;14.87;;;1.63;;
2023;SDS011;1016;48.770;9.154;2022-10-16T05:46:46;16.17;;;1.60;;
2023;SDS011;1016;48.770;9.154;2022-10-16T05:49:11;15.00;;;1.57;;
2023;SDS011;1016;48.770;9.154;2022-10-16T05:51:37;16.47;;;1.70;;
2023;SDS011;1016;48.770;9.154;2022-10-16T05:54:02;14.87;;;1.50;;
2023;SDS011;1016;48.770;9.154;2022-10-16T05:56:28;17.50;;;2.27;;
2023;SDS011;1016;48.770;9.154;2022-10-16T05:58:54;16.00;;;2.00;;
2023;SDS011;1016;48.770;9.154;2022-10-16T06:01:19;14.93;;;1.50;;
2023;SDS011;1016;48.770;9.154;2022-10-16T06:03:49;18.53;;;1.83;;
2023;SDS011;1016;48.770;9.154;2022-10-16T06:06:16;17.50;;;1.80;;
2023;SDS011;1016;48.770;9.154;2022-10-16T06:08:45;16.30;;;1.93;;
2023;SDS011;1016;48.770;9.154;2022-10-16T06:11:12;15.63;;;1.70;;
2023;SDS011;1016;48.770;9.154;2022-10-16T06:13:40;17.63;;;1.80;;
2023;SDS011;1016;48.770;9.154;2022-10-16T06:16:10;19.80;;;1.80;;
2023;SDS011;1016;48.770;9.154;2022-10-16T06:18:36;20.07;;;1.97;;
2023;SDS011;1016;48.770;9.154;2022-10-16T06:21:09;15.50;;;1.67;;
2023;SDS011;1016;48.770;9.154;2022-10-16T06:23:36;15.20;;;1.93;;
2023;SDS011;1016;48.770;9.154;2022-10-16T06:26:06;15.60;;;1.87;;
2023;SDS011;1016;48.770;9.154;2022-10-16T06:28:33;16.10;;;1.60;;
2023;SDS011;1016;48.770;9.154;2022-10-16T06:30:59;18.00;;;1.70;;
2023;SDS011;1016;48.770;9.154;2022-10-16T06:33:25;16.50;;;1.80;;
2023;SDS011;1016;48.770;9.154;2022-10-16T06:35:51;15.43;;;1.67;;
2023;SDS011;1016;48.770;9.154;2022-10-16T06:38:16;17.20;;;1.70;;
2023;SDS011;1016;48.770;9.154;2022-10-16T06:40:42;15.90;;;1.80;;
2023;SDS011;1016;48.770;9.154;2022-10-16T06:43:07;16.40;;;1.70;;
2023;SDS011;1016;48.770;9.154;2022-10-16T06:45:33;15.20;;;1.50;;
2023;SDS011;1016;48.770;9.154;2022-10-16T06:47:58;15.80;;;2.13;;
2023;SDS011;1016;48.770;9.154;2022-10-16T06:50:24;15.10;;;1.67;;
2023;SDS011;1016;48.770;9.154;2022-10-16T06:52:49;15.50;;;1.90;;
2023;SDS011;1016;48.770;9.154;2022-10-16T06:55:15;17.93;;;1.90;;
2023;SDS011;1016;48.770;9.154;2022-10-16T06:57:41;15.13;;;1.80;;
2023;SDS011;1016;48.770;9.154;2022-10-16T07:00:07;16.17;;;2.00;;
2023;SDS011;1016;48.770;9.154;2022-10-16T07:02:33;16.47;;;1.40;;
2023;SDS011;1016;48.770;9.154;2022-10-16T07:04:59;16.30;;;2.30;;
2023;SDS011;1016;48.770;9.154;2022-10-16T07:07:24;19.30;;;2.00;;
2023;SDS011;1016;48.770;9.154;2022-10-16T07:09:51;16.40;;;1.60;;
2023;SDS011;1016;48.770;9.154;2022-10-16T07:12:17;18.23;;;2.13;;
2023;SDS011;1016;48.770;9.154;2022-10-16T07:14:42;15.80;;;1.80;;
2023;SDS011;1016;48.770;9.154;2022-10-16T07:17:08;15.23;;;1.90;;
2023;SDS011;1016;48.770;9.154;2022-10-16T07:19:33;17.07;;;1.90;;
2023;SDS011;1016;48.770;9.154;2022-10-16T07:21:59;16.87;;;2.03;;
2023;SDS011;1016;48.770;9.154;2022-10-16T07:24:25;15.93;;;1.90;;
2023;SDS011;1016;48.770;9.154;2022-10-16T07:26:50;16.47;;;2.10;;
2023;SDS011;1016;48.770;9.154;2022-10-16T07:29:17;15.00;;;1.70;;
2023;SDS011;1016;48.770;9.154;2022-10-16T07:31:44;15.43;;;1.93;;
2023;SDS011;1016;48.770;9.154;2022-10-16T07:34:11;15.17;;;1.87;;
2023;SDS011;1016;48.770;9.154;2022-10-16T07:36:37;18.43;;;1.90;;
2023;SDS011;1016;48.770;9.154;2022-10-16T07:39:03;15.50;;;2.00;;
2023;SDS011;1016;48.770;9.154;2022-10-16T07:41:29;18.20;;;1.93;;
2023;SDS011;1016;48.770;9.154;2022-10-16T07:43:57;25.13;;;2.53;;
2023;SDS011;1016;48.770;9.154;2022-10-16T07:46:25;16.10;;;1.70;;
2023;SDS011;1016;48.770;9.154;2022-10-16T07:48:50;15.57;;;1.93;;
2023;SDS011;1016;48.770;9.154;2022-10-16T07:51:20;17.73;;;1.90;;
2023;SDS011;1016;48.770;9.154;2022-10-16T07:53:47;18.33;;;1.90;;
2023;SDS011;1016;48.770;9.154;2022-10-16T07:56:13;16.30;;;2.07;;
2023;SDS011;1016;48.770;9.154;2022-10-16T07:58:40;15.23;;;1.70;;
2023;SDS011;1016;48.770;9.154;2022-10-16T08:01:07;16.30;;;2.00;;
2023;SDS011;1016;48.770;9.154;2022-10-16T08:03:35;16.57;;;1.70;;
2023;SDS011;1016;48.770;9.154;2022-10-16T08:06:01;15.77;;;1.90;;
2023;SDS011;1016;48.770;9.154;2022-10-16T08:08:27;17.00;;;2.00;;
2023;SDS011;1016;48.770;9.154;2022-10-16T08:10:53;16.57;;;1.57;;
2023;SDS011;1016;48.770;9.154;2022-10-16T08:13:19;15.90;;;1.80;;
2023;SDS011;1016;48.770;9.154;2022-10-16T08:15:44;16.40;;;1.93;;
2023;SDS011;1016;48.770;9.154;2022-10-16T08:18:11;15.20;;;1.60;;
2023;SDS011;1016;48.770;9.154;2022-10-16T08:20:38;14.77;;;1.73;;
2023;SDS011;1016;48.770;9.154;2022-10-16T08:23:04;17.47;;;1.80;;
2023;SDS011;1016;48.770;9.154;2022-10-16T08:25:30;16.60;;;2.10;;
2023;SDS011;1016;48.770;9.154;2022-10-16T08:27:55;16.57;;;2.50;;
2023;SDS011;1016;48.770;9.154;2022-10-16T08:30:22;20.80;;;2.70;;
2023;SDS011;1016;48.770;9.154;2022-10-16T08:32:49;16.87;;;1.90;;
2023;SDS011;1016;48.770;9.154;2022-10-16T08:35:15;15.70;;;1.93;;
2023;SDS011;1016;48.770;9.154;2022-10-16T08:37:41;16.00;;;1.90;;
2023;SDS011;1016;48.770;9.154;2022-10-16T08:40:13;18.77;;;2.57;;
2023;SDS011;1016;48.770;9.154;2022-10-16T08:45:32;15.60;;;1.80;;
2023;SDS011;1016;48.770;9.154;2022-10-16T08:50:43;15.60;;;1.80;;
2023;SDS011;1016;48.770;9.154;2022-10-16T08:53:13;17.90;;;2.10;;
2023;SDS011;1016;48.770;9.154;2022-10-16T08:55:45;16.20;;;1.90;;
2023;SDS011;1016;48.770;9.154;2022-10-16T08:58:15;16.63;;;1.70;;
2023;SDS011;1016;48.770;9.154;2022-10-16T09:00:43;16.10;;;1.83;;
2023;SDS011;1016;48.770;9.154;2022-10-16T09:03:32;18.10;;;2.30;;
2023;SDS011;1016;48.770;9.154;2022-10-16T09:06:37;16.70;;;1.90;;
2023;SDS011;1016;48.770;9.154;2022-10-16T09:15:01;15.50;;;1.77;;
2023;SDS011;1016;48.770;9.154;2022-10-16T09:17:49;15.40;;;1.77;;
2023;SDS011;1016;48.770;9.154;2022-10-16T09:20:38;15.40;;;1.90;;
2023;SDS011;1016;48.770;9.154;2022-10-16T09:23:16;16.70;;;2.07;;
2023;SDS011;1016;48.770;9.154;2022-10-16T09:25:43;16.47;;;2.00;;
2023;SDS011;1016;48.770;9.154;2022-10-16T09:28:12;17.67;;;1.70;;
2023;SDS011;1016;48.770;9.154;2022-10-16T09:30:38;16.63;;;2.00;;
2023;SDS011;1016;48.770;9.154;2022-10-16T09:33:04;17.20;;;1.70;;
2023;SDS011;1016;48.770;9.154;2022-10-16T09:35:38;16.37;;;1.70;;
2023;SDS011;1016;48.770;9.154;2022-10-16T09:38:09;16.57;;;1.93;;
2023;SDS011;1016;48.770;9.154;2022-10-16T09:40:48;15.73;;;2.00;;
2023;SDS011;1016;48.770;9.154;2022-10-16T09:46:05;15.80;;;2.10;;
2023;SDS011;1016;48.770;9.154;2022-10-16T09:48:46;17.10;;;1.80;;
2023;SDS011;1016;48.770;9.154;2022-10-16T09:51:21;15.00;;;1.70;;
2023;SDS011;1016;48.770;9.154;2022-10-16T09:53:53;16.60;;;2.10;;
2023;SDS011;1016;48.770;9.154;2022-10-16T09:56:21;19.07;;;2.77;;
2023;SDS011;1016;48.770;9.154;2022-10-16T09:58:53;16.93;;;2.00;;
2023;SDS011;1016;48.770;9.154;2022-10-16T10:01:20;18.47;;;2.13;;
2023;SDS011;1016;48.770;9.154;2022-10-16T10:03:48;16.90;;;1.97;;
2023;SDS011;1016;48.770;9.154;2022-10-16T10:06:22;16.67;;;1.90;;
2023;SDS011;1016;48.770;9.154;2022-10-16T10:08:59;16.47;;;2.07;;
2023;SDS011;1016;48.770;9.154;2022-10-16T10:11:42;16.70;;;1.90;;
2023;SDS011;1016;48.770;9.154;2022-10-16T10:14:35;16.77;;;2.03;;
2023;SDS011;1016;48.770;9.154;2022-10-16T10:17:21;16.93;;;2.00;;
2023;SDS011;1016;48.770;9.154;2022-10-16T10:19:52;17.27;;;2.37;;
2023;SDS011;1016;48.770;9.154;2022-10-16T10:22:39;17.93;;;2.17;;
2023;SDS011;1016;48.770;9.154;2022-10-16T10:27:39;16.00;;;1.70;;
2023;SDS011;1016;48.770;9.154;2022-10-16T10:30:39;16.17;;;1.63;;
2023;SDS011;1016;48.770;9.154;2022-10-16T10:41:54;16.30;;;1.90;;
2023;SDS011;1016;48.770;9.154;2022-10-16T10:46:50;16.00;;;2.10;;
2023;SDS011;1016;48.770;9.154;2022-10-16T10:54:58;17.10;;;1.77;;
2023;SDS011;1016;48.770;9.154;2022-10-16T11:03:13;16.97;;;1.93;;
2023;SDS011;1016;48.770;9.154;2022-10-16T11:08:49;15.77;;;1.80;;
2023;SDS011;1016;48.770;9.154;2022-10-16T11:14:13;17.10;;;2.00;;
2023;SDS011;1016;48.770;9.154;2022-10-16T11:16:42;17.37;;;1.73;;
2023;SDS011;1016;48.770;9.154;2022-10-16T11:22:24;16.40;;;1.43;;
2023;SDS011;1016;48.770;9.154;2022-10-16T11:25:06;18.87;;;1.80;;
2023;SDS011;1016;48.770;9.154;2022-10-16T11:33:19;16.87;;;3.13;;
2023;SDS011;1016;48.770;9.154;2022-10-16T11:36:04;16.83;;;1.87;;
2023;SDS011;1016;48.770;9.154;2022-10-16T11:41:32;19.60;;;1.67;;
2023;SDS011;1016;48.770;9.154;2022-10-16T11:44:20;16.10;;;1.80;;
2023;SDS011;1016;48.770;9.154;2022-10-16T11:46:52;15.70;;;1.53;;
2023;SDS011;1016;48.770;9.154;2022-10-16T11:49:30;17.03;;;1.77;;
2023;SDS011;1016;48.770;9.154;2022-10-16T11:54:45;16.03;;;1.50;;
2023;SDS011;1016;48.770;9.154;2022-10-16T12:05:18;17.63;;;1.90;;
2023;SDS011;1016;48.770;9.154;2022-10-16T12:10:40;17.00;;;2.03;;
2023;SDS011;1016;48.770;9.154;2022-10-16T12:18:39;16.57;;;1.50;;
2023;SDS011;1016;48.770;9.154;2022-10-16T12:21:05;16.40;;;1.60;;
2023;SDS011;1016;48.770;9.154;2022-10-16T12:23:48;16.13;;;1.53;;
2023;SDS011;1016;48.770;9.154;2022-10-16T12:26:29;19.33;;;1.93;;
2023;SDS011;1016;48.770;9.154;2022-10-16T12:29:14;16.80;;;1.60;;
2023;SDS011;1016;48.770;9.154;2022-10-16T12:31:44;18.40;;;1.87;;
2023;SDS011;1016;48.770;9.154;2022-10-16T12:37:09;17.17;;;1.73;;
2023;SDS011;1016;48.770;9.154;2022-10-16T12:39:49;17.83;;;1.53;;
2023;SDS011;1016;48.770;9.154;2022-10-16T12:42:23;17.80;;;1.80;;
2023;SDS011;1016;48.770;9.154;2022-10-16T12:44:59;16.27;;;1.60;;
2023;SDS011;1016;48.770;9.154;2022-10-16T12:49:57;17.63;;;1.80;;
2023;SDS011;1016;48.770;9.154;2022-10-16T12:54:51;17.97;;;2.00;;
2023;SDS011;1016;48.770;9.154;2022-10-16T13:01:25;16.37;;;2.00;;
2023;SDS011;1016;48.770;9.154;2022-10-16T13:06:18;16.67;;;2.10;;
2023;SDS011;1016;48.770;9.154;2022-10-16T13:09:10;16.83;;;1.93;;
2023;SDS011;1016;48.770;9.154;2022-10-16T13:25:40;17.70;;;1.90;;
2023;SDS011;1016;48.770;9.154;2022-10-16T13:28:17;18.30;;;1.97;;
2023;SDS011;1016;48.770;9.154;2022-10-16T13:30:53;18.83;;;2.00;;
2023;SDS011;1016;48.770;9.154;2022-10-16T13:33:40;17.47;;;2.30;;
2023;SDS011;1016;48.770;9.154;2022-10-16T13:36:24;20.00;;;2.00;;
2023;SDS011;1016;48.770;9.154;2022-10-16T13:44:31;17.33;;;2.10;;
2023;SDS011;1016;48.770;9.154;2022-10-16T13:47:03;17.17;;;1.77;;
2023;SDS011;1016;48.770;9.154;2022-10-16T13:49:29;18.20;;;2.47;;
2023;SDS011;1016;48.770;9.154;2022-10-16T13:51:55;19.03;;;2.70;;
2023;SDS011;1016;48.770;9.154;2022-10-16T13:54:24;17.60;;;2.90;;
2023;SDS011;1016;48.770;9.154;2022-10-16T13:56:51;17.73;;;2.30;;
2023;SDS011;1016;48.770;9.154;2022-10-16T13:59:27;19.13;;;2.80;;
2023;SDS011;1016;48.770;9.154;2022-10-16T14:01:59;17.97;;;2.10;;
2023;SDS011;1016;48.770;9.154;2022-10-16T14:04:31;17.63;;;2.20;;
2023;SDS011;1016;48.770;9.154;2022-10-16T14:06:57;20.80;;;2.70;;
2023;SDS011;1016;48.770;9.154;2022-10-16T14:09:26;18.87;;;2.20;;
2023;SDS011;1016;48.770;9.154;2022-10-16T14:11:58;19.20;;;2.20;;
2023;SDS011;1016;48.770;9.154;2022-10-16T14:14:27;17.53;;;2.47;;
2023;SDS011;1016;48.770;9.154;2022-10-16T14:17:00;17.90;;;2.47;;
2023;SDS011;1016;48.770;9.154;2022-10-16T14:19:28;17.67;;;2.30;;
2023;SDS011;1016;48.770;9.154;2022-10-16T14:21:55;17.63;;;2.20;;
2023;SDS011;1016;48.770;9.154;2022-10-16T14:24:32;19.43;;;2.63;;
2023;SDS011;1016;48.770;9.154;2022-10-16T14:26:59;18.60;;;2.30;;
2023;SDS011;1016;48.770;9.154;2022-10-16T14:29:27;18.27;;;2.63;;
2023;SDS011;1016;48.770;9.154;2022-10-16T14:34:27;18.50;;;3.13;;
2023;SDS011;1016;48.770;9.154;2022-10-16T14:36:58;17.40;;;3.03;;
2023;SDS011;1016;48.770;9.154;2022-10-16T14:39:27;17.00;;;2.67;;
2023;SDS011;1016;48.770;9.154;2022-10-16T14:41:54;16.60;;;2.50;;
2023;SDS011;1016;48.770;9.154;2022-10-16T14:44:22;17.47;;;2.60;;
2023;SDS011;1016;48.770;9.154;2022-10-16T14:46:54;16.90;;;2.60;;
2023;SDS011;1016;48.770;9.154;2022-10-16T14:49:20;17.83;;;2.97;;
2023;SDS011;1016;48.770;9.154;2022-10-16T14:51:47;17.70;;;2.50;;
2023;SDS011;1016;48.770;9.154;2022-10-16T14:54:13;18.00;;;2.90;;
2023;SDS011;1016;48.770;9.154;2022-10-16T14:59:14;16.37;;;3.30;;
2023;SDS011;1016;48.770;9.154;2022-10-16T15:01:44;18.80;;;2.83;;
2023;SDS011;1016;48.770;9.154;2022-10-16T15:04:10;22.53;;;3.30;;
2023;SDS011;1016;48.770;9.154;2022-10-16T15:06:37;17.30;;;2.77;;
2023;SDS011;1016;48.770;9.154;2022-10-16T15:09:02;16.10;;;2.73;;
2023;SDS011;1016;48.770;9.154;2022-10-16T15:11:28;16.30;;;2.73;;
2023;SDS011;1016;48.770;9.154;2022-10-16T15:13:57;17.40;;;2.97;;
2023;SDS011;1016;48.770;9.154;2022-10-16T15:16:22;20.07;;;3.13;;
2023;SDS011;1016;48.770;9.154;2022-10-16T15:18:48;16.50;;;3.67;;
2023;SDS011;1016;48.770;9.154;2022-10-16T15:21:19;17.00;;;2.93;;
2023;SDS011;1016;48.770;9.154;2022-10-16T15:23:49;18.30;;;4.20;;
2023;SDS011;1016;48.770;9.154;2022-10-16T15:26:15;19.67;;;3.10;;
2023;SDS011;1016;48.770;9.154;2022-10-16T15:28:41;18.20;;;2.80;;
2023;SDS011;1016;48.770;9.154;2022-10-16T15:31:06;16.20;;;2.67;;
2023;SDS011;1016;48.770;9.154;2022-10-16T15:33:32;16.90;;;2.70;;
2023;SDS011;1016;48.770;9.154;2022-10-16T15:35:59;21.17;;;3.20;;
2023;SDS011;1016;48.770;9.154;2022-10-16T15:38:25;16.60;;;2.73;;
2023;SDS011;1016;48.770;9.154;2022-10-16T15:40:52;19.77;;;2.77;;
2023;SDS011;1016;48.770;9.154;2022-10-16T15:43:18;19.60;;;3.10;;
2023;SDS011;1016;48.770;9.154;2022-10-16T15:45:43;18.10;;;3.80;;
2023;SDS011;1016;48.770;9.154;2022-10-16T15:48:12;18.80;;;3.10;;
2023;SDS011;1016;48.770;9.154;2022-10-16T15:50:38;15.60;;;2.43;;
2023;SDS011;1016;48.770;9.154;2022-10-16T15:53:05;18.60;;;3.20;;
2023;SDS011;1016;48.770;9.154;2022-10-16T15:55:30;20.67;;;3.10;;
2023;SDS011;1016;48.770;9.154;2022-10-16T15:57:56;17.80;;;2.97;;
2023;SDS011;1016;48.770;9.154;2022-10-16T16:00:21;18.17;;;3.10;;
2023;SDS011;1016;48.770;9.154;2022-10-16T16:02:50;17.97;;;2.63;;
2023;SDS011;1016;48.770;9.154;2022-10-16T16:05:17;18.77;;;3.20;;
2023;SDS011;1016;48.770;9.154;2022-10-16T16:07:43;18.57;;;2.93;;
2023;SDS011;1016;48.770;9.154;2022-10-16T16:10:10;17.47;;;3.10;;
2023;SDS011;1016;48.770;9.154;2022-10-16T16:12:36;18.20;;;3.23;;
2023;SDS011;1016;48.770;9.154;2022-10-16T16:15:05;19.57;;;3.70;;
2023;SDS011;1016;48.770;9.154;2022-10-16T16:17:32;18.40;;;4.40;;
2023;SDS011;1016;48.770;9.154;2022-10-16T16:19:59;19.53;;;4.40;;
2023;SDS011;1016;48.770;9.154;2022-10-16T16:22:24;19.33;;;5.23;;
2023;SDS011;1016;48.770;9.154;2022-10-16T16:24:50;19.63;;;5.70;;
2023;SDS011;1016;48.770;9.154;2022-10-16T16:27:16;22.30;;;5.90;;
2023;SDS011;1016;48.770;9.154;2022-10-16T16:29:41;21.03;;;7.03;;
2023;SDS011;1016;48.770;9.154;2022-10-16T16:32:07;24.23;;;7.40;;
2023;SDS011;1016;48.770;9.154;2022-10-16T16:34:33;20.67;;;7.43;;
2023;SDS011;1016;48.770;9.154;2022-10-16T16:36:58;23.77;;;7.70;;
2023;SDS011;1016;48.770;9.154;2022-10-16T16:39:24;22.40;;;6.83;;
2023;SDS011;1016;48.770;9.154;2022-10-16T16:41:50;22.20;;;6.90;;
2023;SDS011;1016;48.770;9.154;2022-10-16T16:44:15;21.57;;;7.30;;
2023;SDS011;1016;48.770;9.154;2022-10-16T16:46:41;20.93;;;6.93;;
2023;SDS011;1016;48.770;9.154;2022-10-16T16:49:08;19.20;;;6.33;;
2023;SDS011;1016;48.770;9.154;2022-10-16T16:51:36;20.60;;;5.80;;
2023;SDS011;1016;48.770;9.154;2022-10-16T16:54:01;21.20;;;5.57;;
2023;SDS011;1016;48.770;9.154;2022-10-16T16:56:27;22.80;;;5.40;;
2023;SDS011;1016;48.770;9.154;2022-10-16T16:58:53;19.13;;;4.40;;
2023;SDS011;1016;48.770;9.154;2022-10-16T17:01:20;18.60;;;4.63;;
2023;SDS011;1016;48.770;9.154;2022-10-16T17:03:47;18.43;;;4.33;;
2023;SDS011;1016;48.770;9.154;2022-10-16T17:06:14;19.70;;;4.40;;
2023;SDS011;1016;48.770;9.154;2022-10-16T17:08:40;20.70;;;4.63;;
2023;SDS011;1016;48.770;9.154;2022-10-16T17:11:11;19.17;;;4.20;;
2023;SDS011;1016;48.770;9.154;2022-10-16T17:13:38;22.13;;;4.20;;
2023;SDS011;1016;48.770;9.154;2022-10-16T17:16:05;17.23;;;3.30;;
2023;SDS011;1016;48.770;9.154;2022-10-16T17:18:31;17.90;;;3.73;;